Time;durP1;ratioP1;P1;durP2;ratioP2;P2;SDS_P1;SDS_P2;PMS_P1;PMS_P2;Temp;Humidity;BMP_temperature;BMP_pressure;BME280_temperature;BME280_humidity;BME280_pressure;Samples;Min_cycle;Max_cycle;Signal;HPM_P1;HPM_P2
2023/01/28 00:01:09;;;;;;;7.77;5.80;;;7.80;52.60;;;;;;5032352;28;20519;-59
2023/01/28 00:03:35;;;;;;;7.57;5.87;;;7.80;52.70;;;;;;5032629;28;20194;-59
2023/01/28 00:06:05;;;;;;;7.57;5.50;;;7.80;52.80;;;;;;5032349;28;20436;-59
2023/01/28 00:08:32;;;;;;;6.53;5.50;;;7.80;52.80;;;;;;5032093;28;20442;-59
2023/01/28 00:10:59;;;;;;;8.03;6.17;;;7.80;53.30;;;;;;5032080;28;20471;-58
2023/01/28 00:13:25;;;;;;;5.80;5.20;;;7.80;52.70;;;;;;5027697;28;20433;-59
2023/01/28 00:15:59;;;;;;;5.80;4.87;;;7.80;52.70;;;;;;5027862;28;20431;-59
2023/01/28 00:18:25;;;;;;;7.60;5.83;;;7.80;52.80;;;;;;5031578;28;20970;-59
2023/01/28 00:21:10;;;;;;;8.30;5.33;;;7.80;53.00;;;;;;5032152;28;20432;-59
2023/01/28 00:23:37;;;;;;;6.90;5.67;;;7.80;53.00;;;;;;5031191;28;20450;-59
2023/01/28 00:26:08;;;;;;;8.97;6.07;;;7.80;53.00;;;;;;5030296;28;20441;-59
2023/01/28 00:28:34;;;;;;;5.60;5.00;;;7.80;52.90;;;;;;5031617;28;20420;-59
2023/01/28 00:31:09;;;;;;;7.27;5.87;;;7.80;52.90;;;;;;5031644;28;20537;-59
2023/01/28 00:33:35;;;;;;;6.50;5.80;;;7.80;53.00;;;;;;5031747;28;20189;-59
2023/01/28 00:36:02;;;;;;;5.47;4.77;;;7.80;53.00;;;;;;5031827;28;20875;-59
2023/01/28 00:38:28;;;;;;;9.30;5.60;;;7.80;53.10;;;;;;5031267;28;20538;-58
2023/01/28 00:40:54;;;;;;;6.20;5.60;;;7.80;53.20;;;;;;5031869;28;20432;-59
2023/01/28 00:43:20;;;;;;;7.10;5.50;;;7.80;53.10;;;;;;5031807;28;20246;-59
2023/01/28 00:45:46;;;;;;;7.43;5.43;;;7.80;53.30;;;;;;5031737;28;20515;-59
2023/01/28 00:48:11;;;;;;;7.20;5.57;;;7.80;53.30;;;;;;5031238;28;20780;-59
2023/01/28 00:50:38;;;;;;;7.70;5.87;;;7.80;53.30;;;;;;5031633;28;20318;-59
2023/01/28 00:53:04;;;;;;;6.60;5.00;;;7.80;53.30;;;;;;5029782;28;20209;-59
2023/01/28 00:55:29;;;;;;;6.97;5.40;;;7.80;53.30;;;;;;5031639;28;20432;-59
2023/01/28 00:57:55;;;;;;;7.10;5.27;;;7.80;53.30;;;;;;5030838;28;20224;-59
2023/01/28 01:00:24;;;;;;;6.10;4.83;;;7.80;53.30;;;;;;5031698;28;20204;-59
2023/01/28 01:02:50;;;;;;;6.87;5.53;;;7.80;53.40;;;;;;5031342;28;20189;-59
2023/01/28 01:05:16;;;;;;;7.00;5.03;;;7.80;53.30;;;;;;5031427;28;20424;-59
2023/01/28 01:07:41;;;;;;;7.03;4.90;;;7.90;53.20;;;;;;5030753;28;20452;-59
2023/01/28 01:10:10;;;;;;;7.60;5.17;;;7.80;53.70;;;;;;5031236;28;20543;-59
2023/01/28 01:12:35;;;;;;;5.93;4.73;;;7.80;53.30;;;;;;5031100;28;20331;-59
2023/01/28 01:15:01;;;;;;;8.10;6.03;;;7.80;53.40;;;;;;5022348;28;20522;-59
2023/01/28 01:17:30;;;;;;;6.27;5.17;;;7.80;53.40;;;;;;5030723;28;20276;-59
2023/01/28 01:19:56;;;;;;;5.60;4.70;;;7.90;53.40;;;;;;5029643;28;20200;-59
2023/01/28 01:22:21;;;;;;;5.83;4.70;;;7.90;53.30;;;;;;5031073;28;20432;-59
2023/01/28 01:24:47;;;;;;;5.80;5.03;;;7.90;53.30;;;;;;5031164;28;20677;-59
2023/01/28 01:27:13;;;;;;;6.07;4.90;;;7.90;53.20;;;;;;5030456;28;20197;-59
2023/01/28 01:29:38;;;;;;;11.37;5.27;;;7.90;53.20;;;;;;5030989;28;20444;-60
2023/01/28 01:32:04;;;;;;;6.13;5.03;;;7.90;53.30;;;;;;5030718;28;20662;-59
2023/01/28 01:34:30;;;;;;;5.53;4.43;;;7.90;53.40;;;;;;5030371;28;20266;-59
2023/01/28 01:36:55;;;;;;;5.13;4.63;;;7.80;53.30;;;;;;5030322;28;20212;-59
2023/01/28 01:39:21;;;;;;;6.33;5.17;;;7.70;53.40;;;;;;5031042;28;20201;-59
2023/01/28 01:41:46;;;;;;;6.37;4.90;;;7.70;53.60;;;;;;5030969;28;20672;-59
2023/01/28 01:44:49;;;;;;;6.57;5.50;;;7.80;53.60;;;;;;5030893;28;20614;-59
2023/01/28 01:47:16;;;;;;;6.53;5.83;;;7.80;53.60;;;;;;5029542;28;20192;-58
2023/01/28 01:49:43;;;;;;;5.30;4.70;;;7.70;53.50;;;;;;5030761;28;20517;-59
2023/01/28 01:52:14;;;;;;;5.57;4.60;;;7.70;53.60;;;;;;5030846;28;20477;-58
2023/01/28 01:54:43;;;;;;;5.13;4.50;;;7.80;53.70;;;;;;5030763;28;20443;-59
2023/01/28 01:57:13;;;;;;;5.00;4.47;;;7.80;53.80;;;;;;5030197;28;20594;-59
2023/01/28 01:59:41;;;;;;;7.07;5.37;;;7.80;53.70;;;;;;5030694;28;20455;-59
2023/01/28 02:02:09;;;;;;;6.50;5.20;;;7.80;53.60;;;;;;5030626;28;20427;-59
2023/01/28 02:04:38;;;;;;;6.27;4.87;;;7.80;53.60;;;;;;5030566;28;20431;-59
2023/01/28 02:07:05;;;;;;;7.17;5.40;;;7.80;53.50;;;;;;5030338;28;20432;-59
2023/01/28 02:09:37;;;;;;;7.30;4.90;;;7.80;53.50;;;;;;5030699;28;20420;-59
2023/01/28 02:12:09;;;;;;;5.03;4.43;;;7.80;54.10;;;;;;5028909;28;20875;-59
2023/01/28 02:14:47;;;;;;;5.60;4.83;;;7.80;53.60;;;;;;5021616;28;20523;-59
2023/01/28 02:17:13;;;;;;;6.00;4.77;;;7.80;53.40;;;;;;5030090;28;20486;-59
2023/01/28 02:19:59;;;;;;;5.73;4.63;;;7.80;53.50;;;;;;5030471;28;20428;-58
2023/01/28 02:22:39;;;;;;;6.57;4.47;;;7.80;53.50;;;;;;5030292;28;20527;-59
2023/01/28 02:25:31;;;;;;;5.60;4.40;;;7.80;53.50;;;;;;5030337;28;21048;-59
2023/01/28 02:28:14;;;;;;;5.30;4.33;;;7.80;53.60;;;;;;5029656;28;20871;-59
2023/01/28 02:31:05;;;;;;;6.43;4.50;;;7.80;53.60;;;;;;5030278;28;20440;-59
2023/01/28 02:33:57;;;;;;;6.47;5.10;;;7.90;53.60;;;;;;5030384;28;20424;-59
2023/01/28 02:36:41;;;;;;;5.13;4.00;;;7.80;53.60;;;;;;5029833;28;20475;-59
2023/01/28 02:39:14;;;;;;;5.77;4.70;;;7.80;53.70;;;;;;5028492;28;20951;-59
2023/01/28 02:41:49;;;;;;;5.60;4.90;;;7.80;53.70;;;;;;5030403;28;20446;-59
2023/01/28 02:44:14;;;;;;;7.23;4.93;;;7.80;53.90;;;;;;5030735;28;20423;-59
2023/01/28 02:49:33;;;;;;;5.73;4.40;;;7.80;54.00;;;;;;5034168;28;20321;-58
2023/01/28 02:52:04;;;;;;;5.83;4.73;;;7.80;54.00;;;;;;5033710;28;20460;-58
2023/01/28 02:55:15;;;;;;;6.97;4.93;;;7.80;54.00;;;;;;5033637;28;20942;-58
2023/01/28 03:00:24;;;;;;;5.73;4.87;;;7.80;54.00;;;;;;5028395;28;20539;-58
2023/01/28 03:02:58;;;;;;;6.43;5.23;;;7.80;53.90;;;;;;5028429;28;20613;-58
2023/01/28 03:05:35;;;;;;;5.47;4.63;;;7.80;54.20;;;;;;5031906;28;20464;-59
2023/01/28 03:09:21;;;;;;;6.27;5.03;;;7.80;54.10;;;;;;5033253;28;21256;-58
2023/01/28 03:38:40;;;;;;;6.63;5.97;;;7.80;54.40;;;;;;5032385;28;20537;-59
2023/01/28 03:41:07;;;;;;;9.07;6.97;;;7.90;54.50;;;;;;5032958;28;20428;-59
2023/01/28 03:43:33;;;;;;;7.03;6.33;;;7.90;54.60;;;;;;5032805;28;20483;-59
2023/01/28 03:45:59;;;;;;;6.70;5.70;;;7.80;54.60;;;;;;5032720;28;20427;-59
2023/01/28 03:48:27;;;;;;;8.70;7.30;;;7.90;54.70;;;;;;5032123;28;20416;-58
2023/01/28 03:50:55;;;;;;;7.53;6.67;;;7.80;54.70;;;;;;5032700;28;20193;-58
2023/01/28 03:53:21;;;;;;;7.90;7.07;;;7.80;54.90;;;;;;5032636;28;20777;-59
2023/01/28 03:55:49;;;;;;;9.07;7.20;;;7.80;55.00;;;;;;5032884;28;20511;-59
2023/01/28 03:58:16;;;;;;;8.23;6.93;;;7.70;55.20;;;;;;5031391;28;20541;-59
2023/01/28 04:00:42;;;;;;;8.27;6.97;;;7.80;55.30;;;;;;5031658;28;20424;-59
2023/01/28 04:03:15;;;;;;;8.63;7.20;;;7.70;55.70;;;;;;5032390;28;20440;-58
2023/01/28 04:05:56;;;;;;;11.27;7.10;;;7.70;55.80;;;;;;5032411;28;20470;-59
2023/01/28 04:08:21;;;;;;;9.00;7.60;;;7.70;56.00;;;;;;5019790;28;20428;-59
2023/01/28 04:10:47;;;;;;;12.63;6.93;;;7.70;56.10;;;;;;5032356;28;20765;-58
2023/01/28 04:13:12;;;;;;;11.10;7.57;;;7.80;56.20;;;;;;5029381;28;20190;-58
2023/01/28 04:15:38;;;;;;;6.93;6.23;;;7.80;56.10;;;;;;5026671;28;20189;-59
2023/01/28 04:18:03;;;;;;;7.60;6.13;;;7.80;56.00;;;;;;5031580;28;20232;-59
2023/01/28 04:20:29;;;;;;;7.80;6.73;;;7.80;56.10;;;;;;5032218;28;20197;-59
2023/01/28 04:22:55;;;;;;;11.40;7.33;;;7.90;56.20;;;;;;5032317;28;20190;-58
2023/01/28 04:25:20;;;;;;;9.43;7.03;;;7.90;56.20;;;;;;5030346;28;20217;-59
2023/01/28 04:27:46;;;;;;;8.80;7.10;;;7.90;56.20;;;;;;5031809;28;20197;-58
2023/01/28 04:30:11;;;;;;;7.27;6.50;;;7.90;56.10;;;;;;5031841;28;20189;-59
2023/01/28 04:32:37;;;;;;;8.43;6.90;;;7.90;56.10;;;;;;5031828;28;20225;-59
2023/01/28 04:35:03;;;;;;;7.40;6.43;;;7.90;56.10;;;;;;5031796;28;20213;-59
2023/01/28 04:37:28;;;;;;;7.97;6.43;;;7.90;56.30;;;;;;5031545;28;20217;-59
2023/01/28 04:39:54;;;;;;;7.67;6.53;;;7.80;56.20;;;;;;5031704;28;20192;-59
2023/01/28 04:42:19;;;;;;;8.80;6.70;;;7.80;56.40;;;;;;5031928;28;20710;-59
2023/01/28 04:44:45;;;;;;;7.27;5.70;;;7.80;56.50;;;;;;5031818;28;20263;-59
2023/01/28 04:47:10;;;;;;;7.80;5.87;;;7.70;56.50;;;;;;5031208;28;20193;-59
2023/01/28 04:49:36;;;;;;;6.87;5.70;;;7.70;56.60;;;;;;5031652;28;20601;-59
2023/01/28 04:52:02;;;;;;;7.07;6.10;;;7.70;56.90;;;;;;5029900;28;20193;-59
2023/01/28 04:54:27;;;;;;;6.40;5.40;;;7.80;56.90;;;;;;5031491;28;20193;-59
2023/01/28 04:56:56;;;;;;;7.00;6.00;;;7.80;56.70;;;;;;5030969;28;20189;-59
2023/01/28 04:59:22;;;;;;;7.27;6.30;;;7.80;56.70;;;;;;5031452;28;20201;-59
2023/01/28 05:01:48;;;;;;;8.73;5.53;;;7.80;56.60;;;;;;5031788;28;20432;-59
2023/01/28 05:04:16;;;;;;;8.00;7.00;;;7.70;56.70;;;;;;5031320;28;20483;-59
2023/01/28 05:06:41;;;;;;;7.00;6.00;;;7.70;56.80;;;;;;5031018;28;21133;-59
2023/01/28 05:09:07;;;;;;;7.60;6.13;;;7.80;56.90;;;;;;5030640;28;20420;-59
2023/01/28 05:11:33;;;;;;;7.77;5.90;;;7.80;57.00;;;;;;5031318;28;20196;-59
2023/01/28 05:13:58;;;;;;;6.90;6.20;;;7.80;57.00;;;;;;5022765;28;20197;-59
2023/01/28 05:16:24;;;;;;;7.80;6.50;;;7.80;56.90;;;;;;5030707;28;20201;-59
2023/01/28 05:18:50;;;;;;;7.17;6.23;;;7.80;56.80;;;;;;5029615;28;20239;-59
2023/01/28 05:21:16;;;;;;;10.40;6.63;;;7.60;57.00;;;;;;5031315;28;20637;-59
2023/01/28 05:23:42;;;;;;;9.40;6.83;;;7.60;57.10;;;;;;5030996;28;20820;-59
2023/01/28 05:26:08;;;;;;;8.50;6.00;;;7.60;57.10;;;;;;5031160;28;20420;-59
2023/01/28 05:28:34;;;;;;;7.30;5.63;;;7.70;57.30;;;;;;5030546;28;20440;-59
2023/01/28 05:31:04;;;;;;;7.77;6.27;;;7.60;57.30;;;;;;5030933;28;20519;-58
2023/01/28 05:33:29;;;;;;;8.63;6.73;;;7.60;57.40;;;;;;5030865;28;20189;-59
2023/01/28 05:35:55;;;;;;;9.17;6.47;;;7.70;57.50;;;;;;5030705;28;20439;-58
2023/01/28 05:38:20;;;;;;;9.63;7.07;;;7.70;57.40;;;;;;5030360;28;20351;-59
2023/01/28 05:40:47;;;;;;;8.53;6.53;;;7.70;57.40;;;;;;5031066;28;20193;-59
2023/01/28 05:43:12;;;;;;;8.60;6.90;;;7.70;57.40;;;;;;5030704;28;20204;-59
2023/01/28 05:45:38;;;;;;;7.33;6.03;;;7.80;57.30;;;;;;5029243;28;20420;-59
2023/01/28 05:48:04;;;;;;;8.73;6.37;;;7.70;57.20;;;;;;5030307;28;20193;-59
2023/01/28 05:50:31;;;;;;;8.47;6.93;;;7.60;57.30;;;;;;5030639;28;20542;-59
2023/01/28 05:52:56;;;;;;;8.33;6.97;;;7.60;57.40;;;;;;5030667;28;20435;-59
2023/01/28 05:55:22;;;;;;;7.53;6.43;;;7.70;57.40;;;;;;5030757;28;20427;-59
2023/01/28 05:57:48;;;;;;;8.90;6.60;;;7.70;57.40;;;;;;5030242;28;20220;-59
2023/01/28 06:00:14;;;;;;;8.43;6.47;;;7.80;57.30;;;;;;5030576;28;20194;-59
2023/01/28 06:02:41;;;;;;;7.90;7.10;;;7.80;57.20;;;;;;5030457;28;20495;-59
2023/01/28 06:05:07;;;;;;;9.67;6.80;;;7.70;57.10;;;;;;5030622;28;20423;-59
2023/01/28 06:07:33;;;;;;;7.97;6.50;;;7.60;57.10;;;;;;5030072;28;20960;-58
2023/01/28 06:09:58;;;;;;;11.83;8.30;;;7.70;57.40;;;;;;5030593;28;20515;-58
2023/01/28 06:12:24;;;;;;;9.10;7.70;;;7.70;57.30;;;;;;5028902;28;20648;-58
2023/01/28 06:14:49;;;;;;;8.27;7.03;;;7.70;57.30;;;;;;5022074;28;20224;-59
2023/01/28 06:17:15;;;;;;;10.40;7.57;;;7.80;57.20;;;;;;5030101;28;20267;-59
2023/01/28 06:19:40;;;;;;;8.80;7.40;;;7.80;57.20;;;;;;5030668;28;20284;-58
2023/01/28 06:22:06;;;;;;;10.00;8.57;;;7.80;57.20;;;;;;5032083;28;20243;-59
2023/01/28 06:24:32;;;;;;;8.43;7.40;;;7.80;57.10;;;;;;5034235;28;20603;-58
2023/01/28 06:26:57;;;;;;;9.87;8.30;;;7.80;57.20;;;;;;5033836;28;20197;-58
2023/01/28 06:29:23;;;;;;;10.63;8.60;;;7.80;57.20;;;;;;5034287;28;20260;-59
2023/01/28 06:31:49;;;;;;;8.90;7.60;;;7.80;57.20;;;;;;5034129;28;20229;-59
2023/01/28 06:34:15;;;;;;;12.60;9.17;;;7.80;57.10;;;;;;5034299;28;20209;-58
2023/01/28 06:36:41;;;;;;;12.57;8.90;;;7.90;57.20;;;;;;5033731;28;20467;-59
2023/01/28 06:39:07;;;;;;;11.63;8.03;;;7.80;57.00;;;;;;5032381;28;20479;-59
2023/01/28 06:41:32;;;;;;;12.97;8.47;;;7.80;57.10;;;;;;5033962;28;20185;-58
2023/01/28 06:43:58;;;;;;;13.40;9.63;;;7.80;57.20;;;;;;5033822;28;20611;-59
2023/01/28 06:46:23;;;;;;;17.70;12.57;;;7.80;57.20;;;;;;5033418;28;20208;-59
2023/01/28 06:48:49;;;;;;;14.10;10.57;;;7.80;57.30;;;;;;5033977;28;20247;-58
2023/01/28 06:51:15;;;;;;;10.87;9.07;;;7.80;57.30;;;;;;5033801;28;20197;-59
2023/01/28 06:53:40;;;;;;;10.20;8.80;;;7.80;57.30;;;;;;5034021;28;20645;-59
2023/01/28 06:56:07;;;;;;;12.70;8.60;;;7.80;57.40;;;;;;5033718;28;20209;-58
2023/01/28 06:58:33;;;;;;;9.90;7.83;;;7.80;57.40;;;;;;5033296;28;20217;-58
2023/01/28 07:00:59;;;;;;;8.70;7.73;;;7.80;57.40;;;;;;5033400;28;20507;-58
2023/01/28 07:03:24;;;;;;;9.83;8.20;;;7.80;57.40;;;;;;5033537;28;20935;-58
2023/01/28 07:05:50;;;;;;;9.73;7.60;;;7.80;57.40;;;;;;5031669;28;20197;-59
2023/01/28 07:08:16;;;;;;;9.03;7.47;;;7.80;57.40;;;;;;5033397;28;20197;-58
2023/01/28 07:10:43;;;;;;;8.70;7.50;;;7.80;57.50;;;;;;5033336;28;20428;-58
2023/01/28 07:13:09;;;;;;;8.93;8.03;;;7.80;57.30;;;;;;5033417;28;20388;-59
2023/01/28 07:15:34;;;;;;;8.00;7.07;;;7.80;57.30;;;;;;5033297;28;20533;-59
2023/01/28 07:18:00;;;;;;;9.80;8.40;;;7.80;57.30;;;;;;5032831;28;20274;-59
2023/01/28 07:20:26;;;;;;;8.77;7.70;;;7.80;57.30;;;;;;5033246;28;20208;-59
2023/01/28 07:22:51;;;;;;;9.27;8.10;;;7.80;57.30;;;;;;5033483;28;20193;-59
2023/01/28 07:25:17;;;;;;;11.00;9.47;;;7.80;57.40;;;;;;5065150;28;20238;-58
2023/01/28 07:27:51;;;;;;;11.07;9.23;;;7.80;57.40;;;;;;5032799;28;20259;-58
2023/01/28 07:30:18;;;;;;;9.67;8.47;;;7.80;57.40;;;;;;5033228;28;20216;-58
2023/01/28 07:32:45;;;;;;;12.10;10.90;;;7.80;57.40;;;;;;5031246;28;20468;-58
2023/01/28 07:35:11;;;;;;;11.77;9.70;;;7.90;57.60;;;;;;5032972;28;20463;-59
2023/01/28 07:37:37;;;;;;;14.87;11.90;;;7.90;57.60;;;;;;5032547;28;20530;-59
2023/01/28 07:40:03;;;;;;;12.30;9.70;;;7.80;57.40;;;;;;5033167;28;20424;-59
2023/01/28 07:42:28;;;;;;;10.70;8.30;;;7.90;57.40;;;;;;5033021;28;20420;-58
2023/01/28 07:44:54;;;;;;;10.17;8.67;;;7.90;57.40;;;;;;5032581;28;20474;-58
2023/01/28 07:47:19;;;;;;;12.57;9.53;;;7.90;57.40;;;;;;5032627;28;20301;-58
2023/01/28 07:49:45;;;;;;;10.00;7.90;;;7.90;57.30;;;;;;5032695;28;20195;-59
2023/01/28 07:52:11;;;;;;;11.20;9.50;;;7.90;57.40;;;;;;5032648;28;20595;-59
2023/01/28 07:54:36;;;;;;;10.60;8.67;;;8.00;57.40;;;;;;5032500;28;20228;-60
2023/01/28 07:57:08;;;;;;;11.13;8.60;;;8.00;57.40;;;;;;5032296;28;20573;-58
2023/01/28 07:59:34;;;;;;;11.53;9.93;;;8.00;57.40;;;;;;5031028;28;20295;-58
2023/01/28 08:02:00;;;;;;;16.67;13.90;;;8.00;57.40;;;;;;5032400;28;20508;-58
2023/01/28 08:04:25;;;;;;;12.70;11.30;;;8.10;57.40;;;;;;5032396;28;20423;-58
2023/01/28 08:06:51;;;;;;;11.30;9.70;;;8.10;57.30;;;;;;5032057;28;20201;-58
2023/01/28 08:09:17;;;;;;;13.43;10.33;;;8.10;57.70;;;;;;5032283;28;20572;-59
2023/01/28 08:11:42;;;;;;;16.30;10.73;;;8.10;57.10;;;;;;5032291;28;20270;-58
2023/01/28 08:14:09;;;;;;;11.03;9.83;;;8.10;57.70;;;;;;5023600;28;20209;-58
2023/01/28 08:16:35;;;;;;;12.70;9.97;;;8.10;57.10;;;;;;5031749;28;20189;-58
2023/01/28 08:19:01;;;;;;;12.90;10.70;;;8.10;57.00;;;;;;5030636;28;20853;-58
2023/01/28 08:21:27;;;;;;;13.10;10.80;;;8.10;57.10;;;;;;5031018;28;20548;-59
2023/01/28 08:23:53;;;;;;;12.67;9.77;;;8.00;57.00;;;;;;5031968;28;20436;-58
2023/01/28 08:26:19;;;;;;;12.47;9.90;;;8.10;57.30;;;;;;5030393;28;20185;-58
2023/01/28 08:28:44;;;;;;;12.33;10.83;;;8.10;57.50;;;;;;5032056;28;20535;-58
2023/01/28 08:31:10;;;;;;;11.40;10.17;;;8.10;57.50;;;;;;5031891;28;20232;-58
2023/01/28 08:33:35;;;;;;;12.13;9.80;;;8.10;57.60;;;;;;5031825;28;20231;-59
2023/01/28 08:36:03;;;;;;;13.63;10.47;;;8.20;57.50;;;;;;5031765;28;20719;-59
2023/01/28 08:38:28;;;;;;;15.97;10.50;;;8.30;57.40;;;;;;5031773;28;20320;-58
2023/01/28 08:40:56;;;;;;;12.73;9.87;;;8.30;57.30;;;;;;5031890;28;20921;-58
2023/01/28 08:43:22;;;;;;;12.33;9.77;;;8.40;57.20;;;;;;5031633;28;20452;-58
2023/01/28 08:45:48;;;;;;;11.53;10.33;;;8.40;57.00;;;;;;5031070;28;20469;-58
2023/01/28 08:48:16;;;;;;;11.17;8.93;;;8.50;57.00;;;;;;5031283;28;20185;-59
2023/01/28 08:50:42;;;;;;;13.00;9.53;;;8.50;56.70;;;;;;5031685;28;20220;-59
2023/01/28 08:53:11;;;;;;;11.00;9.33;;;8.50;56.40;;;;;;5029953;28;20839;-58
2023/01/28 08:55:37;;;;;;;11.93;9.07;;;8.30;56.20;;;;;;5031566;28;20427;-58
2023/01/28 08:58:04;;;;;;;13.60;10.90;;;8.40;56.20;;;;;;5030952;28;20483;-59
2023/01/28 09:00:30;;;;;;;13.47;9.97;;;8.40;56.10;;;;;;5031293;28;20424;-58
2023/01/28 09:02:55;;;;;;;12.57;9.37;;;8.40;56.10;;;;;;5031338;28;20430;-58
2023/01/28 09:05:21;;;;;;;12.03;9.37;;;8.50;56.20;;;;;;5031336;28;20448;-59
2023/01/28 09:07:47;;;;;;;15.37;10.20;;;8.60;56.10;;;;;;5030900;28;20193;-58
2023/01/28 09:10:13;;;;;;;11.20;9.23;;;8.60;56.00;;;;;;5031170;28;20432;-59
2023/01/28 09:12:39;;;;;;;15.83;10.93;;;8.60;56.10;;;;;;5031160;28;20510;-58
2023/01/28 09:15:05;;;;;;;13.83;10.00;;;8.50;55.80;;;;;;5022590;28;20655;-59
2023/01/28 09:17:31;;;;;;;17.03;12.10;;;8.50;55.90;;;;;;5030670;28;20932;-59
2023/01/28 09:19:56;;;;;;;16.10;10.83;;;8.40;55.70;;;;;;5029632;28;20424;-59
2023/01/28 09:22:22;;;;;;;12.20;10.57;;;8.50;55.60;;;;;;5031109;28;20604;-58
2023/01/28 09:24:48;;;;;;;14.33;10.60;;;8.50;55.40;;;;;;5031251;28;20193;-58
2023/01/28 09:27:13;;;;;;;13.80;10.00;;;8.50;55.70;;;;;;5030453;28;20561;-58
2023/01/28 09:29:39;;;;;;;13.87;10.07;;;8.40;55.90;;;;;;5031020;28;20339;-58
2023/01/28 09:32:08;;;;;;;11.93;9.17;;;8.40;55.20;;;;;;5031183;28;20232;-59
2023/01/28 09:34:34;;;;;;;12.10;10.63;;;8.40;55.40;;;;;;5030935;28;20208;-59
2023/01/28 09:37:00;;;;;;;15.80;13.20;;;8.50;55.60;;;;;;5030762;28;20424;-59
2023/01/28 09:39:27;;;;;;;15.50;11.23;;;8.70;55.70;;;;;;5030998;28;20193;-59
2023/01/28 09:42:04;;;;;;;15.03;11.50;;;8.70;55.30;;;;;;5030895;28;20428;-59
2023/01/28 09:44:39;;;;;;;17.20;11.80;;;8.80;55.50;;;;;;5030966;28;20470;-59
2023/01/28 09:47:14;;;;;;;11.20;10.00;;;8.70;55.20;;;;;;5028781;28;20443;-59
2023/01/28 09:49:47;;;;;;;14.50;10.27;;;8.70;55.20;;;;;;5030913;28;20792;-59
2023/01/28 09:52:17;;;;;;;17.30;10.33;;;8.80;55.20;;;;;;5030948;28;20460;-58
2023/01/28 09:54:51;;;;;;;12.67;10.70;;;8.90;55.20;;;;;;5030768;28;20416;-59
2023/01/28 09:57:26;;;;;;;13.07;10.97;;;8.80;54.90;;;;;;5034302;28;20805;-60
2023/01/28 09:59:52;;;;;;;13.20;10.83;;;8.90;55.00;;;;;;5034771;28;20455;-59
2023/01/28 10:02:45;;;;;;;16.93;12.27;;;8.80;55.00;;;;;;5034915;28;20962;-58
2023/01/28 10:05:25;;;;;;;15.50;11.00;;;8.80;55.40;;;;;;5034804;28;20190;-58
2023/01/28 10:07:51;;;;;;;11.20;9.77;;;8.80;55.30;;;;;;5034252;28;20450;-59
2023/01/28 10:10:51;;;;;;;14.33;9.77;;;8.80;55.00;;;;;;5034712;28;20981;-59
2023/01/28 10:13:22;;;;;;;12.00;9.83;;;8.80;55.20;;;;;;5018186;28;20205;-59
2023/01/28 10:16:02;;;;;;;12.73;10.00;;;8.80;55.30;;;;;;5030401;28;20453;-59
2023/01/28 10:18:44;;;;;;;13.97;10.10;;;8.80;55.10;;;;;;5034248;28;20828;-58
2023/01/28 10:21:16;;;;;;;14.40;10.17;;;8.80;55.00;;;;;;5034309;28;20431;-59
2023/01/28 10:23:47;;;;;;;15.63;10.37;;;8.80;54.90;;;;;;5034235;28;20424;-59
2023/01/28 10:26:31;;;;;;;15.63;9.93;;;8.90;54.60;;;;;;5033865;28;20523;-59
2023/01/28 10:29:02;;;;;;;12.90;10.17;;;8.90;54.60;;;;;;5032850;28;20446;-58
2023/01/28 10:31:34;;;;;;;13.07;9.77;;;8.90;54.70;;;;;;5034203;28;20484;-59
2023/01/28 10:34:00;;;;;;;13.07;10.10;;;8.90;54.60;;;;;;5034256;28;20420;-59
2023/01/28 10:36:26;;;;;;;13.50;9.37;;;9.00;54.70;;;;;;5033774;28;21033;-59
2023/01/28 10:38:51;;;;;;;13.73;9.90;;;9.00;54.50;;;;;;5032170;28;20494;-58
2023/01/28 10:41:21;;;;;;;14.20;9.17;;;8.80;54.30;;;;;;5034307;28;20185;-59
2023/01/28 10:43:48;;;;;;;12.23;9.37;;;8.60;54.70;;;;;;5034137;28;20197;-59
2023/01/28 10:46:21;;;;;;;14.40;10.20;;;8.50;54.60;;;;;;5033567;28;20417;-58
2023/01/28 10:49:12;;;;;;;12.90;9.37;;;8.50;55.00;;;;;;5033964;28;20799;-59
2023/01/28 10:51:41;;;;;;;11.87;8.60;;;8.50;55.30;;;;;;5033730;28;20530;-58
2023/01/28 10:54:35;;;;;;;14.03;11.53;;;8.60;55.10;;;;;;5033845;28;20428;-58
2023/01/28 10:57:07;;;;;;;15.67;11.13;;;8.70;54.80;;;;;;5032672;28;20486;-59
2023/01/28 10:59:35;;;;;;;14.20;10.40;;;8.80;54.50;;;;;;5033667;28;20436;-59
2023/01/28 11:02:18;;;;;;;11.23;9.13;;;8.90;54.60;;;;;;5033684;28;20514;-59
2023/01/28 11:04:44;;;;;;;16.23;10.17;;;9.00;54.30;;;;;;5033687;28;20772;-59
2023/01/28 11:07:19;;;;;;;15.43;9.93;;;9.10;54.10;;;;;;5030730;28;20435;-58
2023/01/28 11:09:50;;;;;;;12.90;9.70;;;9.10;54.00;;;;;;5033535;28;20228;-59
2023/01/28 11:12:21;;;;;;;15.90;10.80;;;9.10;54.20;;;;;;5033583;28;20436;-59
2023/01/28 11:14:52;;;;;;;12.80;9.73;;;8.90;54.00;;;;;;5025269;28;20444;-58
2023/01/28 11:17:20;;;;;;;12.77;9.63;;;8.80;54.20;;;;;;5033098;28;20444;-58
2023/01/28 11:19:46;;;;;;;13.47;9.47;;;8.70;54.40;;;;;;5033586;28;20447;-58
2023/01/28 11:22:34;;;;;;;12.77;10.30;;;8.70;54.70;;;;;;5033153;28;20424;-58
2023/01/28 11:25:04;;;;;;;12.23;9.77;;;8.70;54.60;;;;;;5033305;28;20189;-59
2023/01/28 11:27:31;;;;;;;12.73;9.93;;;8.70;54.40;;;;;;5032716;28;20436;-59
2023/01/28 11:30:02;;;;;;;11.40;9.50;;;8.70;54.50;;;;;;5033189;28;20434;-60
2023/01/28 11:32:29;;;;;;;13.83;10.50;;;8.60;54.60;;;;;;5031099;28;20575;-59
2023/01/28 11:34:56;;;;;;;11.23;9.40;;;8.70;54.70;;;;;;5033041;28;20935;-59
2023/01/28 11:37:24;;;;;;;13.63;9.83;;;8.70;54.60;;;;;;5032645;28;20474;-58
2023/01/28 11:40:19;;;;;;;14.50;10.37;;;8.70;55.10;;;;;;5033170;28;20804;-59
2023/01/28 11:42:45;;;;;;;13.10;10.03;;;8.50;54.80;;;;;;5032517;28;20451;-59
2023/01/28 11:45:21;;;;;;;14.37;10.13;;;8.50;54.60;;;;;;5032940;28;20905;-58
2023/01/28 11:48:07;;;;;;;12.50;8.93;;;8.70;54.70;;;;;;5032943;28;20431;-59
2023/01/28 11:50:55;;;;;;;13.80;9.33;;;8.80;54.60;;;;;;5032667;28;20790;-59
2023/01/28 11:53:45;;;;;;;12.47;9.40;;;8.70;54.40;;;;;;5031807;28;20456;-58
2023/01/28 11:56:35;;;;;;;13.97;10.63;;;8.80;54.20;;;;;;5032332;28;20515;-59
2023/01/28 11:59:27;;;;;;;15.33;10.80;;;8.60;53.90;;;;;;5030953;28;21115;-59
2023/01/28 12:02:30;;;;;;;17.03;10.13;;;8.70;54.20;;;;;;5032589;28;20531;-60
2023/01/28 12:05:40;;;;;;;15.93;9.90;;;8.80;54.30;;;;;;5031417;28;20581;-59
2023/01/28 12:08:19;;;;;;;15.57;10.63;;;8.80;54.20;;;;;;5008533;28;20931;-58
2023/01/28 12:11:17;;;;;;;14.47;10.47;;;8.90;54.30;;;;;;5032295;28;20463;-59
2023/01/28 12:14:15;;;;;;;13.07;10.17;;;9.00;54.60;;;;;;5025296;28;20445;-59
2023/01/28 12:17:10;;;;;;;15.83;10.83;;;9.00;54.30;;;;;;5020932;28;20448;-59
2023/01/28 12:20:04;;;;;;;13.77;10.27;;;8.90;54.70;;;;;;5031204;28;20505;-59
2023/01/28 12:22:36;;;;;;;12.53;10.00;;;8.90;54.30;;;;;;5029817;28;20440;-59
2023/01/28 12:25:22;;;;;;;15.67;10.53;;;8.90;54.60;;;;;;5032174;28;20502;-59
2023/01/28 12:28:05;;;;;;;17.00;12.63;;;8.90;54.60;;;;;;5031147;28;20432;-59
2023/01/28 12:30:33;;;;;;;16.40;11.60;;;9.00;54.80;;;;;;5031691;28;20428;-59
2023/01/28 12:33:25;;;;;;;17.60;12.53;;;9.00;54.70;;;;;;5031936;28;20442;-59
2023/01/28 12:36:24;;;;;;;12.30;10.07;;;8.90;54.80;;;;;;5031611;28;20428;-59
2023/01/28 12:39:02;;;;;;;12.40;9.70;;;8.90;55.00;;;;;;5031810;28;20574;-58
2023/01/28 12:41:35;;;;;;;14.30;9.77;;;8.90;54.90;;;;;;5031640;28;20515;-59
2023/01/28 12:44:09;;;;;;;11.43;8.80;;;8.70;55.00;;;;;;5031722;28;20522;-59
2023/01/28 12:46:58;;;;;;;13.97;10.33;;;8.80;55.20;;;;;;5031242;28;20801;-59
2023/01/28 12:49:58;;;;;;;11.17;9.40;;;9.00;55.20;;;;;;5031645;28;20442;-59
2023/01/28 12:52:40;;;;;;;13.03;9.03;;;9.20;55.10;;;;;;5029893;28;20452;-59
2023/01/28 12:55:24;;;;;;;11.20;8.20;;;9.20;55.00;;;;;;5031565;28;20846;-58
2023/01/28 12:57:50;;;;;;;10.40;8.20;;;9.10;55.30;;;;;;5030878;28;20507;-59
2023/01/28 13:00:19;;;;;;;9.00;7.77;;;9.00;55.50;;;;;;5031618;28;20482;-59
2023/01/28 13:03:04;;;;;;;9.80;8.23;;;8.90;55.50;;;;;;5031327;28;20436;-59
2023/01/28 13:05:41;;;;;;;10.03;7.43;;;8.80;55.80;;;;;;5027220;28;20459;-58
2023/01/28 13:08:27;;;;;;;10.60;7.07;;;8.90;55.80;;;;;;5031217;28;20432;-59
2023/01/28 13:10:55;;;;;;;7.97;5.90;;;8.80;56.00;;;;;;5031267;28;20979;-59
2023/01/28 13:13:37;;;;;;;9.23;6.30;;;8.70;56.70;;;;;;5027394;28;20924;-59
2023/01/28 13:16:06;;;;;;;7.07;6.10;;;8.80;56.90;;;;;;5028666;28;20502;-59
2023/01/28 13:18:41;;;;;;;8.10;6.10;;;9.00;56.80;;;;;;5030114;28;20491;-58
2023/01/28 13:21:23;;;;;;;8.80;6.47;;;8.90;56.70;;;;;;5031044;28;21009;-59
2023/01/28 13:24:13;;;;;;;6.67;5.80;;;9.00;56.70;;;;;;5031133;28;20498;-58
2023/01/28 13:26:43;;;;;;;9.23;5.93;;;9.00;56.70;;;;;;5029992;28;20557;-58
2023/01/28 13:29:24;;;;;;;7.30;6.20;;;8.80;56.90;;;;;;5030913;28;20428;-58
2023/01/28 13:31:52;;;;;;;10.70;7.40;;;8.70;57.70;;;;;;5030465;28;20475;-59
2023/01/28 13:34:28;;;;;;;7.90;6.13;;;8.80;57.70;;;;;;5031166;28;20435;-59
2023/01/28 13:36:56;;;;;;;10.30;6.40;;;8.80;57.60;;;;;;5030468;28;20501;-59
2023/01/28 13:39:24;;;;;;;7.63;6.33;;;8.60;57.40;;;;;;5030879;28;20479;-59
2023/01/28 13:41:55;;;;;;;10.77;8.43;;;8.40;57.50;;;;;;5031123;28;20444;-58